sensor_id;sensor_type;location;lat;lon;timestamp;pressure;altitude;pressure_sealevel;temperature;humidity
49825;BME280;35714;55.708;37.478;2022-11-13T00:01:40;98650.78;;;10.77;47.98
49825;BME280;35714;55.708;37.478;2022-11-13T00:04:25;98654.78;;;10.70;48.43
49825;BME280;35714;55.708;37.478;2022-11-13T00:07:09;98654.97;;;10.63;48.20
49825;BME280;35714;55.708;37.478;2022-11-13T00:09:53;98662.53;;;10.61;47.64
49825;BME280;35714;55.708;37.478;2022-11-13T00:12:38;98645.88;;;10.74;46.18
49825;BME280;35714;55.708;37.478;2022-11-13T00:15:22;98658.88;;;10.72;46.51
49825;BME280;35714;55.708;37.478;2022-11-13T00:18:06;98662.59;;;10.66;46.48
49825;BME280;35714;55.708;37.478;2022-11-13T00:20:50;98645.88;;;10.74;46.09
49825;BME280;35714;55.708;37.478;2022-11-13T00:23:35;98655.03;;;10.68;46.66
49825;BME280;35714;55.708;37.478;2022-11-13T00:26:22;98671.28;;;10.68;47.11
49825;BME280;35714;55.708;37.478;2022-11-13T00:29:07;98668.59;;;10.68;47.46
49825;BME280;35714;55.708;37.478;2022-11-13T00:31:52;98657.03;;;10.78;47.21
49825;BME280;35714;55.708;37.478;2022-11-13T00:34:36;98650.28;;;10.80;47.34
49825;BME280;35714;55.708;37.478;2022-11-13T00:37:20;98660.63;;;10.83;46.91
49825;BME280;35714;55.708;37.478;2022-11-13T00:40:04;98658.88;;;10.72;47.75
49825;BME280;35714;55.708;37.478;2022-11-13T00:42:49;98674.00;;;10.68;47.74
49825;BME280;35714;55.708;37.478;2022-11-13T00:45:33;98676.22;;;10.71;47.52
49825;BME280;35714;55.708;37.478;2022-11-13T00:48:17;98666.81;;;10.79;46.98
49825;BME280;35714;55.708;37.478;2022-11-13T00:51:02;98642.59;;;10.72;47.21
49825;BME280;35714;55.708;37.478;2022-11-13T00:53:46;98657.94;;;10.61;47.97
49825;BME280;35714;55.708;37.478;2022-11-13T00:56:30;98667.78;;;10.68;47.33
49825;BME280;35714;55.708;37.478;2022-11-13T00:59:14;98667.94;;;10.61;47.74
49825;BME280;35714;55.708;37.478;2022-11-13T01:01:58;98673.06;;;10.57;47.91
49825;BME280;35714;55.708;37.478;2022-11-13T01:04:43;98665.69;;;10.53;48.59
49825;BME280;35714;55.708;37.478;2022-11-13T01:07:28;98673.88;;;10.58;48.24
49825;BME280;35714;55.708;37.478;2022-11-13T01:10:13;98672.81;;;10.59;48.17
49825;BME280;35714;55.708;37.478;2022-11-13T01:12:57;98665.81;;;10.63;47.55
49825;BME280;35714;55.708;37.478;2022-11-13T01:15:43;98673.63;;;10.59;47.85
49825;BME280;35714;55.708;37.478;2022-11-13T01:18:27;98661.41;;;10.57;47.82
49825;BME280;35714;55.708;37.478;2022-11-13T01:21:15;98664.16;;;10.62;47.27
49825;BME280;35714;55.708;37.478;2022-11-13T01:23:59;98651.19;;;10.64;46.33
49825;BME280;35714;55.708;37.478;2022-11-13T01:26:44;98665.19;;;10.56;46.78
49825;BME280;35714;55.708;37.478;2022-11-13T01:29:28;98667.84;;;10.51;46.55
49825;BME280;35714;55.708;37.478;2022-11-13T01:32:12;98661.22;;;10.41;46.63
49825;BME280;35714;55.708;37.478;2022-11-13T01:34:56;98647.69;;;10.41;46.75
49825;BME280;35714;55.708;37.478;2022-11-13T01:37:41;98659.53;;;10.35;47.04
49825;BME280;35714;55.708;37.478;2022-11-13T01:40:25;98662.97;;;10.30;47.27
49825;BME280;35714;55.708;37.478;2022-11-13T01:43:30;98666.94;;;10.45;46.73
49825;BME280;35714;55.708;37.478;2022-11-13T01:46:37;98658.72;;;10.35;47.32
49825;BME280;35714;55.708;37.478;2022-11-13T01:49:32;98654.91;;;10.36;47.89
49825;BME280;35714;55.708;37.478;2022-11-13T01:52:28;98659.69;;;10.28;48.56
49825;BME280;35714;55.708;37.478;2022-11-13T01:55:17;98644.50;;;10.05;49.56
49825;BME280;35714;55.708;37.478;2022-11-13T01:58:03;98648.63;;;9.91;50.44
49825;BME280;35714;55.708;37.478;2022-11-13T02:00:49;98648.56;;;9.86;50.70
49825;BME280;35714;55.708;37.478;2022-11-13T02:03:33;98648.75;;;10.01;50.29
49825;BME280;35714;55.708;37.478;2022-11-13T02:06:18;98629.75;;;9.96;50.80
49825;BME280;35714;55.708;37.478;2022-11-13T02:09:05;98655.59;;;9.87;51.16
49825;BME280;35714;55.708;37.478;2022-11-13T02:11:50;98642.06;;;9.87;50.97
49825;BME280;35714;55.708;37.478;2022-11-13T02:14:41;98638.63;;;9.91;50.63
49825;BME280;35714;55.708;37.478;2022-11-13T02:17:30;98632.81;;;9.83;50.85
49825;BME280;35714;55.708;37.478;2022-11-13T02:20:20;98626.81;;;9.81;51.11
49825;BME280;35714;55.708;37.478;2022-11-13T02:25:53;98628.16;;;9.78;51.17
49825;BME280;35714;55.708;37.478;2022-11-13T02:28:37;98644.72;;;9.82;51.14
49825;BME280;35714;55.708;37.478;2022-11-13T02:31:22;98633.88;;;9.82;50.99
49825;BME280;35714;55.708;37.478;2022-11-13T02:34:06;98622.41;;;9.74;51.49
49825;BME280;35714;55.708;37.478;2022-11-13T02:36:50;98634.44;;;9.84;50.90
49825;BME280;35714;55.708;37.478;2022-11-13T02:39:35;98634.31;;;9.73;51.40
49825;BME280;35714;55.708;37.478;2022-11-13T02:42:19;98628.59;;;9.70;51.36
49825;BME280;35714;55.708;37.478;2022-11-13T02:45:04;98610.88;;;9.62;51.38
49825;BME280;35714;55.708;37.478;2022-11-13T02:47:49;98602.63;;;9.74;50.89
49825;BME280;35714;55.708;37.478;2022-11-13T02:50:35;98616.16;;;9.74;50.51
49825;BME280;35714;55.708;37.478;2022-11-13T02:53:20;98622.59;;;9.68;50.66
49825;BME280;35714;55.708;37.478;2022-11-13T02:56:04;98630.31;;;9.59;51.45
49825;BME280;35714;55.708;37.478;2022-11-13T02:58:48;98615.78;;;9.65;50.71
49825;BME280;35714;55.708;37.478;2022-11-13T03:01:33;98616.19;;;9.57;51.10
49825;BME280;35714;55.708;37.478;2022-11-13T03:04:17;98601.28;;;9.54;50.65
49825;BME280;35714;55.708;37.478;2022-11-13T03:07:01;98589.63;;;9.54;50.70
49825;BME280;35714;55.708;37.478;2022-11-13T03:09:45;98589.06;;;9.52;50.39
49825;BME280;35714;55.708;37.478;2022-11-13T03:12:29;98602.78;;;9.45;50.65
49825;BME280;35714;55.708;37.478;2022-11-13T03:15:13;98590.31;;;9.44;50.60
49825;BME280;35714;55.708;37.478;2022-11-13T03:18:02;98596.03;;;9.48;49.84
49825;BME280;35714;55.708;37.478;2022-11-13T03:20:46;98598.28;;;9.34;50.40
49825;BME280;35714;55.708;37.478;2022-11-13T03:23:37;98594.84;;;9.38;50.19
49825;BME280;35714;55.708;37.478;2022-11-13T03:26:21;98599.66;;;9.36;50.34
49825;BME280;35714;55.708;37.478;2022-11-13T03:29:06;98604.00;;;9.37;50.34
49825;BME280;35714;55.708;37.478;2022-11-13T03:31:50;98614.59;;;9.39;49.75
49825;BME280;35714;55.708;37.478;2022-11-13T03:34:34;98603.22;;;9.37;49.93
49825;BME280;35714;55.708;37.478;2022-11-13T03:37:19;98606.97;;;9.53;48.25
49825;BME280;35714;55.708;37.478;2022-11-13T03:40:03;98595.53;;;9.51;48.15
49825;BME280;35714;55.708;37.478;2022-11-13T03:42:47;98576.53;;;9.46;48.00
49825;BME280;35714;55.708;37.478;2022-11-13T03:45:32;98614.16;;;9.47;47.59
49825;BME280;35714;55.708;37.478;2022-11-13T03:48:17;98603.09;;;9.49;46.56
49825;BME280;35714;55.708;37.478;2022-11-13T03:51:01;98622.84;;;9.49;46.46
49825;BME280;35714;55.708;37.478;2022-11-13T03:53:46;98640.59;;;9.40;47.49
49825;BME280;35714;55.708;37.478;2022-11-13T03:56:30;98644.41;;;9.44;47.75
49825;BME280;35714;55.708;37.478;2022-11-13T03:59:14;98621.00;;;9.33;48.64
49825;BME280;35714;55.708;37.478;2022-11-13T04:01:58;98637.88;;;9.23;49.47
49825;BME280;35714;55.708;37.478;2022-11-13T04:04:42;98631.31;;;9.19;50.19
49825;BME280;35714;55.708;37.478;2022-11-13T04:07:28;98635.06;;;9.18;51.20
49825;BME280;35714;55.708;37.478;2022-11-13T04:10:12;98607.84;;;8.91;52.59
49825;BME280;35714;55.708;37.478;2022-11-13T04:12:56;98607.34;;;8.77;51.17
49825;BME280;35714;55.708;37.478;2022-11-13T04:15:41;98608.78;;;8.67;50.66
49825;BME280;35714;55.708;37.478;2022-11-13T04:18:25;98623.38;;;8.66;50.06
49825;BME280;35714;55.708;37.478;2022-11-13T04:21:09;98609.97;;;8.72;49.15
49825;BME280;35714;55.708;37.478;2022-11-13T04:23:54;98626.19;;;8.72;49.31
49825;BME280;35714;55.708;37.478;2022-11-13T04:26:38;98632.63;;;8.71;49.19
49825;BME280;35714;55.708;37.478;2022-11-13T04:29:22;98652.16;;;8.73;49.65
49825;BME280;35714;55.708;37.478;2022-11-13T04:32:06;98645.66;;;8.74;49.73
49825;BME280;35714;55.708;37.478;2022-11-13T04:34:50;98634.97;;;8.79;49.62
49825;BME280;35714;55.708;37.478;2022-11-13T04:37:34;98652.72;;;8.75;49.83
49825;BME280;35714;55.708;37.478;2022-11-13T04:40:18;98642.88;;;8.69;49.82
49825;BME280;35714;55.708;37.478;2022-11-13T04:43:03;98647.31;;;8.75;49.61
49825;BME280;35714;55.708;37.478;2022-11-13T04:45:47;98648.91;;;8.59;50.15
49825;BME280;35714;55.708;37.478;2022-11-13T04:48:31;98654.94;;;8.49;50.37
49825;BME280;35714;55.708;37.478;2022-11-13T04:51:15;98651.03;;;8.57;50.06
49825;BME280;35714;55.708;37.478;2022-11-13T04:53:59;98644.13;;;8.49;50.16
49825;BME280;35714;55.708;37.478;2022-11-13T04:56:43;98651.03;;;8.57;49.86
49825;BME280;35714;55.708;37.478;2022-11-13T04:59:28;98649.19;;;8.45;50.27
49825;BME280;35714;55.708;37.478;2022-11-13T05:02:12;98663.84;;;8.38;50.78
49825;BME280;35714;55.708;37.478;2022-11-13T05:04:56;98644.69;;;8.39;50.82
49825;BME280;35714;55.708;37.478;2022-11-13T05:07:40;98658.81;;;8.41;50.98
49825;BME280;35714;55.708;37.478;2022-11-13T05:10:25;98640.03;;;8.35;51.33
49825;BME280;35714;55.708;37.478;2022-11-13T05:13:10;98645.75;;;8.50;50.61
49825;BME280;35714;55.708;37.478;2022-11-13T05:16:08;98654.94;;;8.49;51.00
49825;BME280;35714;55.708;37.478;2022-11-13T05:18:53;98659.19;;;8.45;51.30
49825;BME280;35714;55.708;37.478;2022-11-13T05:21:38;98668.34;;;8.44;51.60
49825;BME280;35714;55.708;37.478;2022-11-13T05:24:22;98680.78;;;8.45;51.82
49825;BME280;35714;55.708;37.478;2022-11-13T05:27:06;98656.94;;;8.54;51.94
49825;BME280;35714;55.708;37.478;2022-11-13T05:29:51;98681.81;;;8.56;52.15
49825;BME280;35714;55.708;37.478;2022-11-13T05:32:35;98679.06;;;8.67;51.21
49825;BME280;35714;55.708;37.478;2022-11-13T05:35:19;98681.34;;;8.59;52.01
49825;BME280;35714;55.708;37.478;2022-11-13T05:38:04;98685.56;;;8.55;52.03
49825;BME280;35714;55.708;37.478;2022-11-13T05:40:48;98687.28;;;8.73;51.16
49825;BME280;35714;55.708;37.478;2022-11-13T05:43:33;98675.44;;;8.62;51.69
49825;BME280;35714;55.708;37.478;2022-11-13T05:46:20;98692.63;;;8.56;51.84
49825;BME280;35714;55.708;37.478;2022-11-13T05:49:05;98691.44;;;8.63;51.84
49825;BME280;35714;55.708;37.478;2022-11-13T05:51:49;98702.81;;;8.65;51.65
49825;BME280;35714;55.708;37.478;2022-11-13T05:54:33;98700.78;;;8.73;51.69
49825;BME280;35714;55.708;37.478;2022-11-13T05:57:17;98688.41;;;8.77;51.42
49825;BME280;35714;55.708;37.478;2022-11-13T06:00:02;98681.41;;;8.76;51.81
49825;BME280;35714;55.708;37.478;2022-11-13T06:02:46;98684.03;;;8.88;51.32
49825;BME280;35714;55.708;37.478;2022-11-13T06:05:34;98707.94;;;8.79;52.21
49825;BME280;35714;55.708;37.478;2022-11-13T06:08:17;98703.34;;;8.79;52.63
49825;BME280;35714;55.708;37.478;2022-11-13T06:11:13;98744.03;;;8.73;53.75
49825;BME280;35714;55.708;37.478;2022-11-13T06:13:58;98758.63;;;8.60;54.36
49825;BME280;35714;55.708;37.478;2022-11-13T06:16:43;98767.47;;;8.55;56.01
49825;BME280;35714;55.708;37.478;2022-11-13T06:19:27;98805.78;;;8.52;57.19
49825;BME280;35714;55.708;37.478;2022-11-13T06:22:11;98802.59;;;8.43;58.35
49825;BME280;35714;55.708;37.478;2022-11-13T06:24:55;98784.16;;;8.28;58.91
49825;BME280;35714;55.708;37.478;2022-11-13T06:27:40;98806.69;;;8.22;59.29
49825;BME280;35714;55.708;37.478;2022-11-13T06:30:24;98783.19;;;8.11;58.33
49825;BME280;35714;55.708;37.478;2022-11-13T06:33:08;98791.88;;;8.37;58.32
49825;BME280;35714;55.708;37.478;2022-11-13T06:35:52;98800.84;;;9.01;57.10
49825;BME280;35714;55.708;37.478;2022-11-13T06:38:38;98806.28;;;9.47;54.47
49825;BME280;35714;55.708;37.478;2022-11-13T06:41:25;98813.88;;;9.96;52.44
49825;BME280;35714;55.708;37.478;2022-11-13T06:44:12;98813.06;;;10.46;51.02
49825;BME280;35714;55.708;37.478;2022-11-13T06:46:56;98862.91;;;10.84;50.61
49825;BME280;35714;55.708;37.478;2022-11-13T06:49:40;98842.31;;;11.28;49.38
49825;BME280;35714;55.708;37.478;2022-11-13T06:52:25;98841.59;;;11.65;48.16
49825;BME280;35714;55.708;37.478;2022-11-13T06:55:09;98837.78;;;11.61;46.87
49825;BME280;35714;55.708;37.478;2022-11-13T06:57:53;98845.38;;;11.59;47.14
49825;BME280;35714;55.708;37.478;2022-11-13T07:00:38;98864.81;;;11.50;46.33
49825;BME280;35714;55.708;37.478;2022-11-13T07:03:24;98839.56;;;11.77;45.29
49825;BME280;35714;55.708;37.478;2022-11-13T07:06:12;98828.63;;;11.99;44.94
49825;BME280;35714;55.708;37.478;2022-11-13T07:08:57;98866.94;;;12.30;45.17
49825;BME280;35714;55.708;37.478;2022-11-13T07:11:41;98836.38;;;12.50;44.17
49825;BME280;35714;55.708;37.478;2022-11-13T07:14:25;98868.88;;;12.02;43.38
49825;BME280;35714;55.708;37.478;2022-11-13T07:17:09;98881.50;;;11.37;44.19
49825;BME280;35714;55.708;37.478;2022-11-13T07:19:54;98878.84;;;10.98;45.49
49825;BME280;35714;55.708;37.478;2022-11-13T07:22:38;98888.25;;;10.73;45.71
49825;BME280;35714;55.708;37.478;2022-11-13T07:25:47;98867.88;;;10.49;46.13
49825;BME280;35714;55.708;37.478;2022-11-13T07:28:32;98882.59;;;10.58;45.99
49825;BME280;35714;55.708;37.478;2022-11-13T07:31:16;98881.56;;;10.59;45.54
49825;BME280;35714;55.708;37.478;2022-11-13T07:34:01;98877.47;;;10.39;45.22
49825;BME280;35714;55.708;37.478;2022-11-13T07:36:45;98878.97;;;10.18;45.77
49825;BME280;35714;55.708;37.478;2022-11-13T07:39:29;98870.72;;;10.08;46.28
49825;BME280;35714;55.708;37.478;2022-11-13T07:42:14;98890.22;;;10.10;46.43
49825;BME280;35714;55.708;37.478;2022-11-13T07:44:58;98869.00;;;10.36;45.22
49825;BME280;35714;55.708;37.478;2022-11-13T07:47:42;98885.47;;;10.68;45.64
49825;BME280;35714;55.708;37.478;2022-11-13T07:50:28;98925.03;;;11.47;43.53
49825;BME280;35714;55.708;37.478;2022-11-13T07:53:12;98877.59;;;11.77;42.06
49825;BME280;35714;55.708;37.478;2022-11-13T07:55:59;98904.97;;;11.48;42.43
49825;BME280;35714;55.708;37.478;2022-11-13T07:58:45;98901.69;;;11.46;42.48
49825;BME280;35714;55.708;37.478;2022-11-13T08:01:30;98914.06;;;11.37;43.06
49825;BME280;35714;55.708;37.478;2022-11-13T08:04:14;98893.47;;;11.41;43.72
49825;BME280;35714;55.708;37.478;2022-11-13T08:06:58;98907.56;;;11.60;42.84
49825;BME280;35714;55.708;37.478;2022-11-13T08:09:43;98900.19;;;11.55;43.26
49825;BME280;35714;55.708;37.478;2022-11-13T08:12:29;98904.22;;;11.80;42.72
49825;BME280;35714;55.708;37.478;2022-11-13T08:15:13;98907.06;;;11.90;42.59
49825;BME280;35714;55.708;37.478;2022-11-13T08:17:59;98915.28;;;11.96;42.68
49825;BME280;35714;55.708;37.478;2022-11-13T08:20:43;98922.13;;;12.31;42.27
49825;BME280;35714;55.708;37.478;2022-11-13T08:23:28;98914.72;;;12.53;41.88
49825;BME280;35714;55.708;37.478;2022-11-13T08:26:12;98916.91;;;12.99;41.06
49825;BME280;35714;55.708;37.478;2022-11-13T08:28:56;98929.50;;;13.63;40.92
49825;BME280;35714;55.708;37.478;2022-11-13T08:31:40;98922.00;;;14.53;37.64
49825;BME280;35714;55.708;37.478;2022-11-13T08:34:24;98932.91;;;14.53;37.54
49825;BME280;35714;55.708;37.478;2022-11-13T08:37:09;98931.25;;;14.11;38.52
49825;BME280;35714;55.708;37.478;2022-11-13T08:39:53;98934.19;;;13.83;38.96
49825;BME280;35714;55.708;37.478;2022-11-13T08:42:38;98924.94;;;13.89;38.96
49825;BME280;35714;55.708;37.478;2022-11-13T08:45:22;98915.47;;;14.43;38.05
49825;BME280;35714;55.708;37.478;2022-11-13T08:48:07;98928.50;;;14.98;36.84
49825;BME280;35714;55.708;37.478;2022-11-13T08:50:53;98924.13;;;15.18;36.48
49825;BME280;35714;55.708;37.478;2022-11-13T08:53:38;98925.59;;;15.55;36.26
49825;BME280;35714;55.708;37.478;2022-11-13T08:56:22;98943.91;;;16.14;35.41
49825;BME280;35714;55.708;37.478;2022-11-13T08:59:09;98943.97;;;16.78;33.90
49825;BME280;35714;55.708;37.478;2022-11-13T09:01:53;98958.56;;;16.68;34.35
49825;BME280;35714;55.708;37.478;2022-11-13T09:04:45;98948.94;;;16.41;34.28
49825;BME280;35714;55.708;37.478;2022-11-13T09:07:29;98954.91;;;16.04;35.10
49825;BME280;35714;55.708;37.478;2022-11-13T09:10:15;98945.72;;;15.84;34.56
49825;BME280;35714;55.708;37.478;2022-11-13T09:13:00;98954.97;;;15.18;36.01
49825;BME280;35714;55.708;37.478;2022-11-13T09:15:45;98945.41;;;14.18;37.36
49825;BME280;35714;55.708;37.478;2022-11-13T09:18:30;98948.16;;;14.07;38.05
49825;BME280;35714;55.708;37.478;2022-11-13T09:21:15;98947.09;;;14.55;37.16
49825;BME280;35714;55.708;37.478;2022-11-13T09:23:59;98947.13;;;14.86;37.18
49825;BME280;35714;55.708;37.478;2022-11-13T09:26:43;98945.94;;;15.23;36.13
49825;BME280;35714;55.708;37.478;2022-11-13T09:29:27;98947.22;;;15.51;34.25
49825;BME280;35714;55.708;37.478;2022-11-13T09:32:13;98954.78;;;14.73;35.91
49825;BME280;35714;55.708;37.478;2022-11-13T09:34:57;98964.25;;;14.19;37.23
49825;BME280;35714;55.708;37.478;2022-11-13T09:37:42;98955.31;;;14.70;36.72
49825;BME280;35714;55.708;37.478;2022-11-13T09:41:08;98953.03;;;15.29;35.59
49825;BME280;35714;55.708;37.478;2022-11-13T09:43:55;98976.44;;;15.56;33.85
49825;BME280;35714;55.708;37.478;2022-11-13T09:46:43;98980.59;;;15.38;33.71
49825;BME280;35714;55.708;37.478;2022-11-13T09:49:32;98996.78;;;14.72;34.42
49825;BME280;35714;55.708;37.478;2022-11-13T09:52:22;98978.13;;;14.02;34.83
49825;BME280;35714;55.708;37.478;2022-11-13T09:55:15;98989.50;;;13.31;36.16
49825;BME280;35714;55.708;37.478;2022-11-13T10:00:53;98992.81;;;12.58;37.28
49825;BME280;35714;55.708;37.478;2022-11-13T10:03:45;98998.13;;;12.75;36.98
49825;BME280;35714;55.708;37.478;2022-11-13T10:06:51;98976.78;;;13.37;35.61
49825;BME280;35714;55.708;37.478;2022-11-13T10:12:32;98992.84;;;12.95;35.44
49825;BME280;35714;55.708;37.478;2022-11-13T10:15:17;99016.41;;;12.52;36.18
49825;BME280;35714;55.708;37.478;2022-11-13T10:18:27;99013.13;;;12.50;37.12
49825;BME280;35714;55.708;37.478;2022-11-13T10:21:34;99017.50;;;13.69;35.33
49825;BME280;35714;55.708;37.478;2022-11-13T10:24:26;99041.28;;;14.83;33.54
49825;BME280;35714;55.708;37.478;2022-11-13T10:27:13;99028.59;;;15.59;33.17
49825;BME280;35714;55.708;37.478;2022-11-13T10:29:59;99052.72;;;16.28;31.98
49825;BME280;35714;55.708;37.478;2022-11-13T10:32:44;99035.03;;;16.04;32.16
49825;BME280;35714;55.708;37.478;2022-11-13T10:35:43;99051.34;;;15.44;33.14
49825;BME280;35714;55.708;37.478;2022-11-13T10:38:49;99062.84;;;15.10;33.86
49825;BME280;35714;55.708;37.478;2022-11-13T10:42:03;99048.63;;;15.24;34.44
49825;BME280;35714;55.708;37.478;2022-11-13T10:44:58;99049.63;;;15.64;33.68
49825;BME280;35714;55.708;37.478;2022-11-13T10:47:50;99066.94;;;14.97;33.55
49825;BME280;35714;55.708;37.478;2022-11-13T10:50:34;99065.59;;;13.96;35.26
49825;BME280;35714;55.708;37.478;2022-11-13T10:53:19;99071.31;;;13.14;37.20
49825;BME280;35714;55.708;37.478;2022-11-13T10:56:29;99059.44;;;12.60;38.17
49825;BME280;35714;55.708;37.478;2022-11-13T10:59:17;99086.75;;;12.21;39.32
49825;BME280;35714;55.708;37.478;2022-11-13T11:05:16;99083.03;;;12.05;39.75
49825;BME280;35714;55.708;37.478;2022-11-13T11:08:07;99070.31;;;11.67;40.54
49825;BME280;35714;55.708;37.478;2022-11-13T11:10:57;99086.31;;;11.29;41.17
49825;BME280;35714;55.708;37.478;2022-11-13T11:16:55;99091.84;;;10.55;41.85
49825;BME280;35714;55.708;37.478;2022-11-13T11:19:40;99104.22;;;10.79;42.09
49825;BME280;35714;55.708;37.478;2022-11-13T11:22:30;99093.13;;;11.49;40.47
49825;BME280;35714;55.708;37.478;2022-11-13T11:25:35;99091.34;;;11.94;39.17
49825;BME280;35714;55.708;37.478;2022-11-13T11:28:33;99098.03;;;12.08;38.33
49825;BME280;35714;55.708;37.478;2022-11-13T11:34:42;99108.91;;;13.87;36.33
49825;BME280;35714;55.708;37.478;2022-11-13T11:37:35;99110.59;;;14.82;34.81
49825;BME280;35714;55.708;37.478;2022-11-13T11:40:33;99122.84;;;14.69;33.42
49825;BME280;35714;55.708;37.478;2022-11-13T11:46:03;99130.00;;;13.27;35.27
49825;BME280;35714;55.708;37.478;2022-11-13T11:48:48;99121.19;;;12.87;36.34
49825;BME280;35714;55.708;37.478;2022-11-13T11:54:39;99116.47;;;12.50;37.14
49825;BME280;35714;55.708;37.478;2022-11-13T12:00:30;99141.91;;;11.61;38.33
49825;BME280;35714;55.708;37.478;2022-11-13T12:06:40;99156.13;;;11.68;38.84
49825;BME280;35714;55.708;37.478;2022-11-13T12:09:32;99166.94;;;12.41;38.32
49825;BME280;35714;55.708;37.478;2022-11-13T12:18:21;99175.72;;;12.97;36.66
49825;BME280;35714;55.708;37.478;2022-11-13T12:35:49;99208.59;;;10.13;42.02
49825;BME280;35714;55.708;37.478;2022-11-13T12:38:41;99211.44;;;9.94;42.42
49825;BME280;35714;55.708;37.478;2022-11-13T12:44:56;99227.69;;;9.70;42.73
49825;BME280;35714;55.708;37.478;2022-11-13T12:47:44;99230.59;;;9.57;43.11
49825;BME280;35714;55.708;37.478;2022-11-13T12:50:32;99233.88;;;9.47;43.10
49825;BME280;35714;55.708;37.478;2022-11-13T12:53:26;99232.06;;;9.29;43.94
49825;BME280;35714;55.708;37.478;2022-11-13T13:16:50;99288.31;;;8.35;49.04
49825;BME280;35714;55.708;37.478;2022-11-13T13:19:34;99298.38;;;8.27;49.50
49825;BME280;35714;55.708;37.478;2022-11-13T13:22:27;99301.81;;;8.16;49.61
49825;BME280;35714;55.708;37.478;2022-11-13T13:25:32;99302.53;;;8.05;49.34
49825;BME280;35714;55.708;37.478;2022-11-13T13:28:20;99296.00;;;7.94;49.81
49825;BME280;35714;55.708;37.478;2022-11-13T13:46:33;99343.94;;;7.67;50.18
49825;BME280;35714;55.708;37.478;2022-11-13T13:49:19;99331.94;;;7.63;49.92
49825;BME280;35714;55.708;37.478;2022-11-13T13:52:04;99350.44;;;7.59;50.31
49825;BME280;35714;55.708;37.478;2022-11-13T13:54:49;99354.84;;;7.53;50.52
49825;BME280;35714;55.708;37.478;2022-11-13T13:57:39;99347.19;;;7.50;51.08
49825;BME280;35714;55.708;37.478;2022-11-13T14:00:24;99346.16;;;7.45;51.28
49825;BME280;35714;55.708;37.478;2022-11-13T14:03:18;99353.25;;;7.39;51.72
49825;BME280;35714;55.708;37.478;2022-11-13T14:08:54;99370.53;;;7.31;51.76
49825;BME280;35714;55.708;37.478;2022-11-13T14:11:38;99368.44;;;7.33;52.16
49825;BME280;35714;55.708;37.478;2022-11-13T14:14:22;99356.59;;;7.34;52.17
49825;BME280;35714;55.708;37.478;2022-11-13T14:17:09;99357.84;;;7.32;52.09
49825;BME280;35714;55.708;37.478;2022-11-13T14:19:55;99375.50;;;7.28;52.04
49825;BME280;35714;55.708;37.478;2022-11-13T14:22:46;99384.44;;;7.21;51.99
49825;BME280;35714;55.708;37.478;2022-11-13T14:25:31;99365.81;;;7.20;51.67
49825;BME280;35714;55.708;37.478;2022-11-13T14:28:42;99377.63;;;7.19;51.94
49825;BME280;35714;55.708;37.478;2022-11-13T14:31:32;99384.44;;;7.21;51.70
49825;BME280;35714;55.708;37.478;2022-11-13T14:34:18;99391.50;;;7.22;51.61
49825;BME280;35714;55.708;37.478;2022-11-13T14:37:43;99418.84;;;7.26;51.21
49825;BME280;35714;55.708;37.478;2022-11-13T14:40:29;99418.28;;;7.17;51.01
49825;BME280;35714;55.708;37.478;2022-11-13T14:43:25;99418.91;;;7.19;51.14
49825;BME280;35714;55.708;37.478;2022-11-13T14:46:34;99416.00;;;7.14;51.12
49825;BME280;35714;55.708;37.478;2022-11-13T14:49:31;99400.25;;;7.11;51.10
49825;BME280;35714;55.708;37.478;2022-11-13T14:52:26;99413.97;;;7.03;51.22
49825;BME280;35714;55.708;37.478;2022-11-13T14:55:23;99437.63;;;7.08;51.22
49825;BME280;35714;55.708;37.478;2022-11-13T14:58:12;99419.78;;;7.07;51.11
49825;BME280;35714;55.708;37.478;2022-11-13T15:01:14;99429.09;;;7.11;50.99
49825;BME280;35714;55.708;37.478;2022-11-13T15:03:59;99433.47;;;7.05;51.16
49825;BME280;35714;55.708;37.478;2022-11-13T15:06:43;99441.72;;;7.10;50.92
49825;BME280;35714;55.708;37.478;2022-11-13T15:09:29;99448.59;;;7.06;51.24
49825;BME280;35714;55.708;37.478;2022-11-13T15:12:14;99432.44;;;7.06;51.29
49825;BME280;35714;55.708;37.478;2022-11-13T15:14:58;99437.59;;;7.01;51.44
49825;BME280;35714;55.708;37.478;2022-11-13T15:17:44;99455.44;;;7.02;51.42
49825;BME280;35714;55.708;37.478;2022-11-13T15:20:30;99454.63;;;7.01;51.52
49825;BME280;35714;55.708;37.478;2022-11-13T15:23:15;99466.22;;;7.02;51.40
49825;BME280;35714;55.708;37.478;2022-11-13T15:25:59;99465.00;;;6.98;51.52
49825;BME280;35714;55.708;37.478;2022-11-13T15:28:43;99459.00;;;6.96;51.70
49825;BME280;35714;55.708;37.478;2022-11-13T15:31:33;99463.34;;;6.97;51.76
49825;BME280;35714;55.708;37.478;2022-11-13T15:34:17;99458.38;;;6.94;52.04
49825;BME280;35714;55.708;37.478;2022-11-13T15:37:09;99476.19;;;6.95;51.85
49825;BME280;35714;55.708;37.478;2022-11-13T15:39:54;99455.88;;;6.92;51.96
49825;BME280;35714;55.708;37.478;2022-11-13T15:42:38;99484.50;;;6.86;52.15
49825;BME280;35714;55.708;37.478;2022-11-13T15:45:24;99483.06;;;6.91;52.24
49825;BME280;35714;55.708;37.478;2022-11-13T15:48:08;99490.72;;;6.94;52.03
49825;BME280;35714;55.708;37.478;2022-11-13T15:50:53;99487.41;;;6.92;52.07
49825;BME280;35714;55.708;37.478;2022-11-13T15:53:36;99502.75;;;6.91;52.05
49825;BME280;35714;55.708;37.478;2022-11-13T15:56:22;99489.06;;;6.93;52.05
49825;BME280;35714;55.708;37.478;2022-11-13T15:59:10;99509.41;;;6.89;52.20
49825;BME280;35714;55.708;37.478;2022-11-13T16:01:55;99500.66;;;6.86;52.31
49825;BME280;35714;55.708;37.478;2022-11-13T16:04:40;99506.88;;;6.80;52.30
49825;BME280;35714;55.708;37.478;2022-11-13T16:07:27;99513.75;;;6.76;52.40
49825;BME280;35714;55.708;37.478;2022-11-13T16:10:15;99507.31;;;6.64;52.59
49825;BME280;35714;55.708;37.478;2022-11-13T16:13:00;99509.78;;;6.52;53.07